sensor_id;sensor_type;location;lat;lon;timestamp;pressure;altitude;pressure_sealevel;temperature;humidity
78623;BME280;67943;54.412;9.502;2023-09-18T00:01:23;100927.41;;;19.86;78.94
78623;BME280;67943;54.412;9.502;2023-09-18T00:06:24;100917.94;;;19.80;78.96
78623;BME280;67943;54.412;9.502;2023-09-18T00:11:27;100911.56;;;19.67;79.66
78623;BME280;67943;54.412;9.502;2023-09-18T00:16:28;100913.22;;;19.70;79.44
78623;BME280;67943;54.412;9.502;2023-09-18T00:21:30;100898.75;;;19.74;79.21
78623;BME280;67943;54.412;9.502;2023-09-18T00:26:33;100886.69;;;19.67;79.32
78623;BME280;67943;54.412;9.502;2023-09-18T00:31:34;100869.03;;;19.64;79.44
78623;BME280;67943;54.412;9.502;2023-09-18T00:36:36;100864.00;;;19.60;79.41
78623;BME280;67943;54.412;9.502;2023-09-18T00:41:39;100856.00;;;19.60;79.38
78623;BME280;67943;54.412;9.502;2023-09-18T00:46:41;100849.88;;;19.58;79.51
78623;BME280;67943;54.412;9.502;2023-09-18T00:51:43;100838.84;;;19.48;79.94
78623;BME280;67943;54.412;9.502;2023-09-18T00:56:46;100843.31;;;19.47;79.92
78623;BME280;67943;54.412;9.502;2023-09-18T01:01:54;100841.94;;;19.40;80.49
78623;BME280;67943;54.412;9.502;2023-09-18T01:06:56;100850.72;;;19.42;80.26
78623;BME280;67943;54.412;9.502;2023-09-18T01:12:05;100843.81;;;19.38;80.39
78623;BME280;67943;54.412;9.502;2023-09-18T01:17:12;100853.72;;;19.36;80.70
78623;BME280;67943;54.412;9.502;2023-09-18T01:22:16;100845.94;;;19.33;80.71
78623;BME280;67943;54.412;9.502;2023-09-18T01:27:19;100835.50;;;19.29;80.79
78623;BME280;67943;54.412;9.502;2023-09-18T01:32:24;100830.59;;;19.21;81.02
78623;BME280;67943;54.412;9.502;2023-09-18T01:37:29;100811.34;;;19.16;81.39
78623;BME280;67943;54.412;9.502;2023-09-18T01:42:34;100805.81;;;19.19;81.15
78623;BME280;67943;54.412;9.502;2023-09-18T01:47:36;100792.56;;;19.17;81.11
78623;BME280;67943;54.412;9.502;2023-09-18T01:52:37;100795.84;;;19.07;81.60
78623;BME280;67943;54.412;9.502;2023-09-18T01:57:40;100775.28;;;19.09;81.54
78623;BME280;67943;54.412;9.502;2023-09-18T02:02:43;100759.44;;;19.06;81.41
78623;BME280;67943;54.412;9.502;2023-09-18T02:07:44;100746.13;;;19.06;81.32
78623;BME280;67943;54.412;9.502;2023-09-18T02:12:47;100723.28;;;19.02;81.56
78623;BME280;67943;54.412;9.502;2023-09-18T02:17:49;100714.84;;;18.94;81.96
78623;BME280;67943;54.412;9.502;2023-09-18T02:22:50;100703.59;;;18.88;82.02
78623;BME280;67943;54.412;9.502;2023-09-18T02:27:53;100691.28;;;18.86;82.20
78623;BME280;67943;54.412;9.502;2023-09-18T02:32:55;100679.75;;;18.85;82.06
78623;BME280;67943;54.412;9.502;2023-09-18T02:37:57;100675.19;;;18.87;81.94
78623;BME280;67943;54.412;9.502;2023-09-18T02:43:01;100667.88;;;18.91;81.49
78623;BME280;67943;54.412;9.502;2023-09-18T02:48:03;100668.75;;;18.92;81.49
78623;BME280;67943;54.412;9.502;2023-09-18T02:53:06;100663.59;;;18.88;81.12
78623;BME280;67943;54.412;9.502;2023-09-18T02:58:10;100658.75;;;18.95;80.71
78623;BME280;67943;54.412;9.502;2023-09-18T03:03:12;100651.97;;;18.89;80.87
78623;BME280;67943;54.412;9.502;2023-09-18T03:08:15;100655.41;;;18.92;80.78
78623;BME280;67943;54.412;9.502;2023-09-18T03:13:18;100651.34;;;18.70;81.54
78623;BME280;67943;54.412;9.502;2023-09-18T03:18:19;100658.13;;;18.76;81.44
78623;BME280;67943;54.412;9.502;2023-09-18T03:23:21;100653.44;;;18.79;81.10
78623;BME280;67943;54.412;9.502;2023-09-18T03:28:24;100652.50;;;18.80;80.83
78623;BME280;67943;54.412;9.502;2023-09-18T03:33:25;100657.66;;;18.83;80.55
78623;BME280;67943;54.412;9.502;2023-09-18T03:38:27;100637.28;;;18.82;80.21
78623;BME280;67943;54.412;9.502;2023-09-18T03:43:31;100623.56;;;18.74;80.48
78623;BME280;67943;54.412;9.502;2023-09-18T03:48:33;100614.78;;;18.72;80.58
78623;BME280;67943;54.412;9.502;2023-09-18T03:53:37;100610.16;;;18.76;80.28
78623;BME280;67943;54.412;9.502;2023-09-18T03:58:40;100591.75;;;18.71;80.40
78623;BME280;67943;54.412;9.502;2023-09-18T04:03:42;100587.53;;;18.67;80.74
78623;BME280;67943;54.412;9.502;2023-09-18T04:08:43;100593.91;;;18.65;80.58
78623;BME280;67943;54.412;9.502;2023-09-18T04:13:46;100581.75;;;18.59;80.83
78623;BME280;67943;54.412;9.502;2023-09-18T04:18:47;100577.56;;;18.55;80.96
78623;BME280;67943;54.412;9.502;2023-09-18T04:23:49;100566.38;;;18.48;81.24
78623;BME280;67943;54.412;9.502;2023-09-18T04:28:57;100559.47;;;18.46;81.19
78623;BME280;67943;54.412;9.502;2023-09-18T04:33:59;100546.34;;;18.57;80.78
78623;BME280;67943;54.412;9.502;2023-09-18T04:39:00;100534.34;;;18.50;80.66
78623;BME280;67943;54.412;9.502;2023-09-18T04:44:04;100514.91;;;18.48;80.78
78623;BME280;67943;54.412;9.502;2023-09-18T04:49:06;100498.09;;;18.47;80.71
78623;BME280;67943;54.412;9.502;2023-09-18T04:54:07;100495.53;;;18.46;80.63
78623;BME280;67943;54.412;9.502;2023-09-18T04:59:10;100487.16;;;18.52;80.17
78623;BME280;67943;54.412;9.502;2023-09-18T05:04:12;100490.00;;;18.49;80.22
78623;BME280;67943;54.412;9.502;2023-09-18T05:09:14;100493.25;;;18.54;79.72
78623;BME280;67943;54.412;9.502;2023-09-18T05:14:17;100503.31;;;18.49;80.16
78623;BME280;67943;54.412;9.502;2023-09-18T05:19:19;100516.44;;;18.52;79.88
78623;BME280;67943;54.412;9.502;2023-09-18T05:24:20;100496.00;;;18.52;79.75
78623;BME280;67943;54.412;9.502;2023-09-18T05:29:28;100484.66;;;18.49;79.97
78623;BME280;67943;54.412;9.502;2023-09-18T05:34:30;100472.09;;;18.51;79.86
78623;BME280;67943;54.412;9.502;2023-09-18T05:39:32;100461.09;;;18.57;79.37
78623;BME280;67943;54.412;9.502;2023-09-18T05:44:35;100448.19;;;18.65;78.94
78623;BME280;67943;54.412;9.502;2023-09-18T05:49:39;100435.38;;;18.72;78.53
78623;BME280;67943;54.412;9.502;2023-09-18T05:54:41;100410.25;;;18.76;78.55
78623;BME280;67943;54.412;9.502;2023-09-18T05:59:43;100409.75;;;18.83;78.12
78623;BME280;67943;54.412;9.502;2023-09-18T06:04:45;100409.19;;;18.93;77.74
78623;BME280;67943;54.412;9.502;2023-09-18T06:09:47;100389.19;;;19.00;77.21
78623;BME280;67943;54.412;9.502;2023-09-18T06:14:50;100369.94;;;19.09;76.87
78623;BME280;67943;54.412;9.502;2023-09-18T06:19:51;100360.78;;;19.13;76.78
78623;BME280;67943;54.412;9.502;2023-09-18T06:24:54;100344.97;;;19.24;76.14
78623;BME280;67943;54.412;9.502;2023-09-18T06:29:56;100337.22;;;19.34;75.48
78623;BME280;67943;54.412;9.502;2023-09-18T06:34:58;100324.22;;;19.42;75.75
78623;BME280;67943;54.412;9.502;2023-09-18T06:39:59;100318.22;;;19.52;75.72
78623;BME280;67943;54.412;9.502;2023-09-18T06:45:06;100303.97;;;19.79;74.67
78623;BME280;67943;54.412;9.502;2023-09-18T06:50:08;100314.06;;;20.01;73.88
78623;BME280;67943;54.412;9.502;2023-09-18T06:55:12;100299.09;;;20.23;72.54
78623;BME280;67943;54.412;9.502;2023-09-18T07:00:16;100294.84;;;20.34;72.53
78623;BME280;67943;54.412;9.502;2023-09-18T07:05:18;100286.97;;;20.45;71.97
78623;BME280;67943;54.412;9.502;2023-09-18T07:10:20;100272.41;;;20.62;71.58
78623;BME280;67943;54.412;9.502;2023-09-18T07:15:23;100257.56;;;20.81;71.06
78623;BME280;67943;54.412;9.502;2023-09-18T07:20:24;100245.47;;;21.25;69.29
78623;BME280;67943;54.412;9.502;2023-09-18T07:25:26;100254.47;;;21.24;69.08
78623;BME280;67943;54.412;9.502;2023-09-18T07:30:28;100238.59;;;21.34;68.84
78623;BME280;67943;54.412;9.502;2023-09-18T07:35:30;100235.06;;;21.33;69.03
78623;BME280;67943;54.412;9.502;2023-09-18T07:40:31;100231.41;;;21.34;69.41
78623;BME280;67943;54.412;9.502;2023-09-18T07:45:38;100237.03;;;21.42;69.44
78623;BME280;67943;54.412;9.502;2023-09-18T07:50:43;100220.28;;;21.51;69.38
78623;BME280;67943;54.412;9.502;2023-09-18T07:55:44;100199.50;;;21.66;68.90
78623;BME280;67943;54.412;9.502;2023-09-18T08:00:48;100194.72;;;22.05;67.73
78623;BME280;67943;54.412;9.502;2023-09-18T08:05:54;100178.75;;;22.03;67.15
78623;BME280;67943;54.412;9.502;2023-09-18T08:10:56;100187.28;;;22.08;67.00
78623;BME280;67943;54.412;9.502;2023-09-18T08:15:59;100176.34;;;22.11;66.70
78623;BME280;67943;54.412;9.502;2023-09-18T08:21:01;100194.38;;;22.09;66.75
78623;BME280;67943;54.412;9.502;2023-09-18T08:26:02;100196.06;;;22.10;66.55
78623;BME280;67943;54.412;9.502;2023-09-18T08:31:05;100184.44;;;22.54;65.59
78623;BME280;67943;54.412;9.502;2023-09-18T08:36:07;100174.13;;;22.39;65.45
78623;BME280;67943;54.412;9.502;2023-09-18T08:41:09;100169.28;;;22.10;66.70
78623;BME280;67943;54.412;9.502;2023-09-18T08:46:12;100176.09;;;22.03;67.45
78623;BME280;67943;54.412;9.502;2023-09-18T08:51:15;100177.47;;;21.74;68.85
78623;BME280;67943;54.412;9.502;2023-09-18T08:56:17;100173.84;;;21.64;69.45
78623;BME280;67943;54.412;9.502;2023-09-18T09:01:21;100167.25;;;21.56;70.10
78623;BME280;67943;54.412;9.502;2023-09-18T09:06:22;100163.09;;;21.52;70.33
78623;BME280;67943;54.412;9.502;2023-09-18T09:11:24;100167.97;;;21.59;69.85
78623;BME280;67943;54.412;9.502;2023-09-18T09:16:27;100166.78;;;21.74;68.82
78623;BME280;67943;54.412;9.502;2023-09-18T09:21:38;100164.13;;;21.85;68.35
78623;BME280;67943;54.412;9.502;2023-09-18T09:26:41;100147.06;;;21.75;68.87
78623;BME280;67943;54.412;9.502;2023-09-18T09:31:44;100155.31;;;21.61;69.64
78623;BME280;67943;54.412;9.502;2023-09-18T09:36:53;100155.47;;;21.81;69.54
78623;BME280;67943;54.412;9.502;2023-09-18T09:41:54;100157.03;;;21.73;69.96
78623;BME280;67943;54.412;9.502;2023-09-18T09:46:59;100150.72;;;21.63;71.05
78623;BME280;67943;54.412;9.502;2023-09-18T09:52:01;100159.56;;;21.52;71.89
78623;BME280;67943;54.412;9.502;2023-09-18T09:57:04;100162.59;;;21.47;72.69
78623;BME280;67943;54.412;9.502;2023-09-18T10:02:07;100143.09;;;21.34;74.64
78623;BME280;67943;54.412;9.502;2023-09-18T10:07:09;100171.28;;;21.27;75.92
78623;BME280;67943;54.412;9.502;2023-09-18T10:12:12;100162.34;;;20.92;78.49
78623;BME280;67943;54.412;9.502;2023-09-18T10:17:18;100165.44;;;20.74;79.90
78623;BME280;67943;54.412;9.502;2023-09-18T10:22:24;100143.72;;;20.79;80.73
78623;BME280;67943;54.412;9.502;2023-09-18T10:27:33;100139.53;;;20.99;80.54
78623;BME280;67943;54.412;9.502;2023-09-18T10:32:37;100135.16;;;21.21;80.42
78623;BME280;67943;54.412;9.502;2023-09-18T10:37:39;100141.63;;;21.30;79.79
78623;BME280;67943;54.412;9.502;2023-09-18T10:42:44;100133.22;;;21.23;80.31
78623;BME280;67943;54.412;9.502;2023-09-18T10:47:48;100124.53;;;21.77;80.28
78623;BME280;67943;54.412;9.502;2023-09-18T10:52:50;100134.91;;;22.38;76.18
78623;BME280;67943;54.412;9.502;2023-09-18T10:57:53;100137.28;;;22.63;74.20
78623;BME280;67943;54.412;9.502;2023-09-18T11:03:11;100138.34;;;22.17;76.48
78623;BME280;67943;54.412;9.502;2023-09-18T11:08:29;100124.69;;;21.87;77.34
78623;BME280;67943;54.412;9.502;2023-09-18T11:13:34;100114.59;;;22.02;77.24
78623;BME280;67943;54.412;9.502;2023-09-18T11:18:37;100126.28;;;22.01;76.85
78623;BME280;67943;54.412;9.502;2023-09-18T11:23:39;100132.25;;;22.04;77.05
78623;BME280;67943;54.412;9.502;2023-09-18T11:28:47;100134.06;;;21.93;77.59
78623;BME280;67943;54.412;9.502;2023-09-18T11:33:52;100128.06;;;21.67;79.74
78623;BME280;67943;54.412;9.502;2023-09-18T11:38:55;100156.81;;;21.65;80.45
78623;BME280;67943;54.412;9.502;2023-09-18T11:44:32;100164.00;;;21.29;86.21
78623;BME280;67943;54.412;9.502;2023-09-18T11:49:37;100162.91;;;21.08;88.89
78623;BME280;67943;54.412;9.502;2023-09-18T11:54:39;100175.06;;;21.01;90.46
78623;BME280;67943;54.412;9.502;2023-09-18T11:59:42;100183.06;;;21.01;91.13
78623;BME280;67943;54.412;9.502;2023-09-18T12:04:53;100170.38;;;20.92;92.90
78623;BME280;67943;54.412;9.502;2023-09-18T12:09:54;100170.91;;;21.08;92.83
78623;BME280;67943;54.412;9.502;2023-09-18T12:14:56;100170.97;;;21.19;91.24
78623;BME280;67943;54.412;9.502;2023-09-18T12:19:59;100167.78;;;21.38;90.46
78623;BME280;67943;54.412;9.502;2023-09-18T12:25:10;100189.91;;;21.29;91.36
78623;BME280;67943;54.412;9.502;2023-09-18T12:30:13;100197.53;;;21.22;91.10
78623;BME280;67943;54.412;9.502;2023-09-18T12:35:22;100184.78;;;21.02;91.81
78623;BME280;67943;54.412;9.502;2023-09-18T12:40:30;100160.72;;;21.13;92.37
78623;BME280;67943;54.412;9.502;2023-09-18T12:45:33;100167.88;;;21.25;90.99
78623;BME280;67943;54.412;9.502;2023-09-18T12:50:37;100179.56;;;21.24;91.20
78623;BME280;67943;54.412;9.502;2023-09-18T12:55:39;100169.88;;;21.34;90.01
78623;BME280;67943;54.412;9.502;2023-09-18T13:00:45;100176.97;;;21.58;89.68
78623;BME280;67943;54.412;9.502;2023-09-18T13:05:49;100165.34;;;21.81;87.48
78623;BME280;67943;54.412;9.502;2023-09-18T13:10:54;100162.38;;;21.73;88.27
78623;BME280;67943;54.412;9.502;2023-09-18T13:15:57;100179.47;;;21.94;86.92
78623;BME280;67943;54.412;9.502;2023-09-18T13:21:09;100161.69;;;21.93;86.50
78623;BME280;67943;54.412;9.502;2023-09-18T13:26:10;100172.06;;;22.09;84.23
78623;BME280;67943;54.412;9.502;2023-09-18T13:31:12;100162.16;;;21.98;85.67
78623;BME280;67943;54.412;9.502;2023-09-18T13:36:15;100158.50;;;21.99;85.34
78623;BME280;67943;54.412;9.502;2023-09-18T13:41:17;100163.19;;;22.08;86.02
78623;BME280;67943;54.412;9.502;2023-09-18T13:46:18;100165.97;;;22.40;84.54
78623;BME280;67943;54.412;9.502;2023-09-18T13:51:21;100167.56;;;22.97;81.93
78623;BME280;67943;54.412;9.502;2023-09-18T13:56:23;100169.78;;;23.24;78.29
78623;BME280;67943;54.412;9.502;2023-09-18T14:01:28;100152.44;;;23.28;76.10
78623;BME280;67943;54.412;9.502;2023-09-18T14:06:32;100154.91;;;23.41;73.84
78623;BME280;67943;54.412;9.502;2023-09-18T14:11:33;100157.38;;;23.12;74.84
78623;BME280;67943;54.412;9.502;2023-09-18T14:16:38;100153.03;;;23.00;74.72
78623;BME280;67943;54.412;9.502;2023-09-18T14:21:41;100140.88;;;22.96;75.26
78623;BME280;67943;54.412;9.502;2023-09-18T14:26:43;100138.69;;;22.89;75.45
78623;BME280;67943;54.412;9.502;2023-09-18T14:31:45;100135.00;;;23.02;75.82
78623;BME280;67943;54.412;9.502;2023-09-18T14:36:48;100130.94;;;23.70;73.38
78623;BME280;67943;54.412;9.502;2023-09-18T14:41:49;100129.53;;;24.27;70.61
78623;BME280;67943;54.412;9.502;2023-09-18T14:46:51;100136.13;;;24.53;69.13
78623;BME280;67943;54.412;9.502;2023-09-18T14:51:54;100140.00;;;24.30;69.82
78623;BME280;67943;54.412;9.502;2023-09-18T14:56:56;100130.69;;;23.73;69.93
78623;BME280;67943;54.412;9.502;2023-09-18T15:01:58;100115.31;;;23.54;70.61
78623;BME280;67943;54.412;9.502;2023-09-18T15:07:01;100123.75;;;23.49;71.37
78623;BME280;67943;54.412;9.502;2023-09-18T15:12:03;100129.22;;;23.59;70.61
78623;BME280;67943;54.412;9.502;2023-09-18T15:17:04;100112.28;;;23.47;71.50
78623;BME280;67943;54.412;9.502;2023-09-18T15:22:09;100112.66;;;23.84;69.93
78623;BME280;67943;54.412;9.502;2023-09-18T15:27:11;100114.41;;;23.95;68.52
78623;BME280;67943;54.412;9.502;2023-09-18T15:32:12;100110.81;;;23.85;68.12
78623;BME280;67943;54.412;9.502;2023-09-18T15:37:15;100106.44;;;23.42;69.30
78623;BME280;67943;54.412;9.502;2023-09-18T15:42:17;100106.44;;;23.42;70.08
78623;BME280;67943;54.412;9.502;2023-09-18T15:47:18;100111.81;;;23.42;68.94
78623;BME280;67943;54.412;9.502;2023-09-18T15:52:22;100106.69;;;23.81;67.59
78623;BME280;67943;54.412;9.502;2023-09-18T15:57:24;100106.22;;;24.06;66.42
78623;BME280;67943;54.412;9.502;2023-09-18T16:02:26;100116.13;;;23.96;66.66
78623;BME280;67943;54.412;9.502;2023-09-18T16:07:29;100103.09;;;24.01;66.94
78623;BME280;67943;54.412;9.502;2023-09-18T16:12:31;100098.09;;;23.87;67.42
78623;BME280;67943;54.412;9.502;2023-09-18T16:17:33;100093.91;;;23.64;69.36
78623;BME280;67943;54.412;9.502;2023-09-18T16:22:37;100098.66;;;23.39;70.22
78623;BME280;67943;54.412;9.502;2023-09-18T16:27:40;100086.56;;;23.24;71.31
78623;BME280;67943;54.412;9.502;2023-09-18T16:33:01;100083.22;;;23.11;71.70
78623;BME280;67943;54.412;9.502;2023-09-18T16:38:04;100068.13;;;23.10;71.35
78623;BME280;67943;54.412;9.502;2023-09-18T16:43:06;100080.47;;;23.01;70.98
78623;BME280;67943;54.412;9.502;2023-09-18T16:48:09;100075.38;;;22.98;70.51
78623;BME280;67943;54.412;9.502;2023-09-18T16:53:12;100072.00;;;22.85;70.42
78623;BME280;67943;54.412;9.502;2023-09-18T16:58:14;100074.13;;;22.70;70.92
78623;BME280;67943;54.412;9.502;2023-09-18T17:03:16;100094.13;;;22.66;71.27
78623;BME280;67943;54.412;9.502;2023-09-18T17:08:19;100095.34;;;22.19;61.44
78623;BME280;67943;54.412;9.502;2023-09-18T17:13:20;100056.03;;;21.75;62.32
78623;BME280;67943;54.412;9.502;2023-09-18T17:18:23;100057.50;;;21.56;62.16
78623;BME280;67943;54.412;9.502;2023-09-18T17:23:26;100078.28;;;21.53;62.75
78623;BME280;67943;54.412;9.502;2023-09-18T17:28:28;100059.19;;;21.35;62.66
78623;BME280;67943;54.412;9.502;2023-09-18T17:33:29;100068.41;;;21.31;61.98
78623;BME280;67943;54.412;9.502;2023-09-18T17:38:32;100056.16;;;21.05;63.54
78623;BME280;67943;54.412;9.502;2023-09-18T17:43:33;100059.81;;;21.04;63.99
78623;BME280;67943;54.412;9.502;2023-09-18T17:48:35;100062.69;;;20.89;64.72
78623;BME280;67943;54.412;9.502;2023-09-18T17:53:38;100070.19;;;20.84;65.21
78623;BME280;67943;54.412;9.502;2023-09-18T17:58:39;100063.84;;;20.74;66.08
78623;BME280;67943;54.412;9.502;2023-09-18T18:03:41;100049.75;;;20.72;66.60
78623;BME280;67943;54.412;9.502;2023-09-18T18:08:44;100052.31;;;20.74;66.35
78623;BME280;67943;54.412;9.502;2023-09-18T18:13:46;100054.69;;;20.66;66.86
78623;BME280;67943;54.412;9.502;2023-09-18T18:18:48;100066.34;;;20.65;66.91
78623;BME280;67943;54.412;9.502;2023-09-18T18:23:50;100042.97;;;20.55;67.60
78623;BME280;67943;54.412;9.502;2023-09-18T18:28:52;100040.41;;;20.54;67.53
78623;BME280;67943;54.412;9.502;2023-09-18T18:33:54;100037.63;;;20.55;67.61
78623;BME280;67943;54.412;9.502;2023-09-18T18:39:01;100036.78;;;20.55;67.99
78623;BME280;67943;54.412;9.502;2023-09-18T18:44:05;100031.06;;;20.48;68.64
78623;BME280;67943;54.412;9.502;2023-09-18T18:49:07;100037.59;;;20.44;71.06
78623;BME280;67943;54.412;9.502;2023-09-18T18:54:09;100038.13;;;20.37;73.77
78623;BME280;67943;54.412;9.502;2023-09-18T18:59:11;100039.19;;;20.34;75.81
78623;BME280;67943;54.412;9.502;2023-09-18T19:04:12;100025.97;;;20.33;77.17
78623;BME280;67943;54.412;9.502;2023-09-18T19:09:16;100025.22;;;20.31;77.63
78623;BME280;67943;54.412;9.502;2023-09-18T19:14:17;100013.56;;;20.32;77.87
78623;BME280;67943;54.412;9.502;2023-09-18T19:19:19;100010.25;;;20.28;78.45
78623;BME280;67943;54.412;9.502;2023-09-18T19:24:22;100010.16;;;20.30;78.62
78623;BME280;67943;54.412;9.502;2023-09-18T19:29:23;100000.31;;;20.30;78.89
78623;BME280;67943;54.412;9.502;2023-09-18T19:34:28;99989.63;;;20.30;78.74
78623;BME280;67943;54.412;9.502;2023-09-18T19:39:31;100000.84;;;20.11;80.37
78623;BME280;67943;54.412;9.502;2023-09-18T19:44:33;99993.00;;;20.21;79.94
78623;BME280;67943;54.412;9.502;2023-09-18T19:49:35;99992.94;;;20.10;79.83
78623;BME280;67943;54.412;9.502;2023-09-18T19:54:43;99968.22;;;20.19;78.01
78623;BME280;67943;54.412;9.502;2023-09-18T19:59:44;99962.94;;;20.06;77.68
78623;BME280;67943;54.412;9.502;2023-09-18T20:04:49;99954.69;;;20.09;76.60
78623;BME280;67943;54.412;9.502;2023-09-18T20:09:52;99956.78;;;19.93;76.14
78623;BME280;67943;54.412;9.502;2023-09-18T20:14:54;99939.81;;;19.94;75.57
78623;BME280;67943;54.412;9.502;2023-09-18T20:19:56;99925.34;;;19.85;75.54
78623;BME280;67943;54.412;9.502;2023-09-18T20:24:58;99925.59;;;19.70;76.01
78623;BME280;67943;54.412;9.502;2023-09-18T20:30:01;99934.56;;;19.69;75.98
78623;BME280;67943;54.412;9.502;2023-09-18T20:35:05;99936.50;;;19.67;75.91
78623;BME280;67943;54.412;9.502;2023-09-18T20:40:08;99929.06;;;19.59;76.43
78623;BME280;67943;54.412;9.502;2023-09-18T20:45:09;99954.59;;;19.50;77.03
78623;BME280;67943;54.412;9.502;2023-09-18T20:50:11;99956.53;;;19.23;78.36
78623;BME280;67943;54.412;9.502;2023-09-18T20:55:14;99958.34;;;19.10;79.76
78623;BME280;67943;54.412;9.502;2023-09-18T21:00:16;99945.75;;;19.12;79.93
78623;BME280;67943;54.412;9.502;2023-09-18T21:05:18;99955.38;;;19.02;79.57
78623;BME280;67943;54.412;9.502;2023-09-18T21:10:21;99937.22;;;19.07;78.68
78623;BME280;67943;54.412;9.502;2023-09-18T21:15:23;99946.09;;;18.95;77.10
78623;BME280;67943;54.412;9.502;2023-09-18T21:20:24;99941.94;;;18.91;76.04
78623;BME280;67943;54.412;9.502;2023-09-18T21:25:27;99957.06;;;18.90;74.71
78623;BME280;67943;54.412;9.502;2023-09-18T21:30:29;99941.41;;;18.73;72.97
78623;BME280;67943;54.412;9.502;2023-09-18T21:35:31;99946.50;;;18.63;73.04
78623;BME280;67943;54.412;9.502;2023-09-18T21:40:33;99941.97;;;18.51;73.03
78623;BME280;67943;54.412;9.502;2023-09-18T21:45:35;99953.81;;;18.47;72.81
78623;BME280;67943;54.412;9.502;2023-09-18T21:50:36;99938.09;;;18.30;73.40
78623;BME280;67943;54.412;9.502;2023-09-18T21:55:43;99931.59;;;18.34;73.74
78623;BME280;67943;54.412;9.502;2023-09-18T22:00:53;99929.44;;;18.13;74.91
78623;BME280;67943;54.412;9.502;2023-09-18T22:05:55;99927.72;;;18.12;75.44
78623;BME280;67943;54.412;9.502;2023-09-18T22:10:58;99930.53;;;17.97;76.15
78623;BME280;67943;54.412;9.502;2023-09-18T22:15:59;99937.84;;;17.93;76.43
78623;BME280;67943;54.412;9.502;2023-09-18T22:21:01;99939.03;;;17.89;76.85
78623;BME280;67943;54.412;9.502;2023-09-18T22:26:05;99944.88;;;17.94;76.57
78623;BME280;67943;54.412;9.502;2023-09-18T22:31:08;99942.75;;;17.86;77.19
78623;BME280;67943;54.412;9.502;2023-09-18T22:36:13;99938.88;;;17.64;78.79
78623;BME280;67943;54.412;9.502;2023-09-18T22:57:39;99939.16;;;17.73;78.66
78623;BME280;67943;54.412;9.502;2023-09-18T23:02:41;99938.81;;;17.92;78.04
78623;BME280;67943;54.412;9.502;2023-09-18T23:07:48;99932.44;;;17.68;79.42
78623;BME280;67943;54.412;9.502;2023-09-18T23:12:53;99938.88;;;17.78;78.88
78623;BME280;67943;54.412;9.502;2023-09-18T23:17:56;99932.78;;;17.76;79.10
78623;BME280;67943;54.412;9.502;2023-09-18T23:22:58;99933.34;;;17.81;78.93
78623;BME280;67943;54.412;9.502;2023-09-18T23:28:01;99932.53;;;17.93;78.65
78623;BME280;67943;54.412;9.502;2023-09-18T23:33:03;99938.88;;;17.78;79.56
78623;BME280;67943;54.412;9.502;2023-09-18T23:38:10;99932.25;;;17.71;80.30
78623;BME280;67943;54.412;9.502;2023-09-18T23:43:13;99940.13;;;17.72;80.35
78623;BME280;67943;54.412;9.502;2023-09-18T23:48:17;99935.66;;;17.73;80.80
78623;BME280;67943;54.412;9.502;2023-09-18T23:53:19;99938.88;;;17.78;81.59
78623;BME280;67943;54.412;9.502;2023-09-18T23:58:26;99923.69;;;17.66;81.91
